createdAt,value
2023-01-11T00:01:29.562Z,47.80
2023-01-11T00:03:58.163Z,47.90
2023-01-11T00:06:26.866Z,47.80
2023-01-11T00:08:56.248Z,47.90
2023-01-11T00:11:24.916Z,48.00
2023-01-11T00:13:54.911Z,48.10
2023-01-11T00:16:23.729Z,48.10
2023-01-11T00:18:52.430Z,48.10
2023-01-11T00:21:22.276Z,48.10
2023-01-11T00:23:51.656Z,48.20
2023-01-11T00:26:20.355Z,48.30
2023-01-11T00:28:50.033Z,48.30
2023-01-11T00:31:20.085Z,48.40
2023-01-11T00:33:48.612Z,48.40
2023-01-11T00:36:17.246Z,48.40
2023-01-11T00:38:53.747Z,48.50
2023-01-11T00:41:42.697Z,48.40
2023-01-11T00:44:29.886Z,48.40
2023-01-11T00:47:17.892Z,48.40
2023-01-11T00:49:46.574Z,48.40
2023-01-11T00:52:15.288Z,48.40
2023-01-11T00:54:44.158Z,48.50
2023-01-11T00:57:12.776Z,48.40
2023-01-11T00:59:41.509Z,48.40
2023-01-11T01:02:13.363Z,48.50
2023-01-11T01:04:42.475Z,48.50
2023-01-11T01:07:12.056Z,48.40
2023-01-11T01:09:40.736Z,48.50
2023-01-11T01:12:10.224Z,48.50
2023-01-11T01:14:37.950Z,48.60
2023-01-11T01:17:09.995Z,48.50
2023-01-11T01:19:40.384Z,48.60
2023-01-11T01:22:09.214Z,48.70
2023-01-11T01:24:38.165Z,48.70
2023-01-11T01:27:06.767Z,48.80
2023-01-11T01:29:35.375Z,48.80
2023-01-11T01:32:03.961Z,48.90
2023-01-11T01:34:37.430Z,48.90
2023-01-11T01:37:06.184Z,49.00
2023-01-11T01:39:35.085Z,49.00
2023-01-11T01:42:04.115Z,49.00
2023-01-11T01:44:57.964Z,49.10
2023-01-11T01:47:33.096Z,49.40
2023-01-11T01:50:09.251Z,49.20
2023-01-11T01:52:38.307Z,49.10
2023-01-11T01:55:12.393Z,49.10
2023-01-11T01:57:46.041Z,49.20
2023-01-11T02:00:15.610Z,49.30
2023-01-11T02:02:46.475Z,49.10
2023-01-11T02:05:18.547Z,49.30
2023-01-11T02:07:48.483Z,49.20
2023-01-11T02:10:20.187Z,49.20
2023-01-11T02:12:53.206Z,49.20
2023-01-11T02:15:23.860Z,49.30
2023-01-11T02:17:52.734Z,49.20
2023-01-11T02:20:59.078Z,49.20
2023-01-11T02:23:59.126Z,49.40
2023-01-11T02:26:52.887Z,49.40
2023-01-11T02:29:35.539Z,49.40
2023-01-11T02:32:19.991Z,49.40
2023-01-11T02:34:59.245Z,49.40
2023-01-11T02:37:37.687Z,49.30
2023-01-11T02:40:15.134Z,49.40
2023-01-11T02:43:11.082Z,49.40
2023-01-11T02:45:51.579Z,49.50
2023-01-11T02:48:28.596Z,49.50
2023-01-11T02:51:04.910Z,49.50
2023-01-11T02:53:38.951Z,49.50
2023-01-11T02:56:11.242Z,49.60
2023-01-11T02:58:43.878Z,49.50
2023-01-11T03:01:14.741Z,49.60
2023-01-11T03:03:43.382Z,49.60
2023-01-11T03:06:18.129Z,49.60
2023-01-11T03:09:19.439Z,49.80
2023-01-11T03:12:28.927Z,50.00
2023-01-11T03:15:16.151Z,50.00
2023-01-11T03:17:55.885Z,50.00
2023-01-11T03:20:30.356Z,50.00
2023-01-11T03:23:12.521Z,49.90
2023-01-11T03:25:56.881Z,50.00
2023-01-11T03:28:35.182Z,50.10
2023-01-11T03:31:09.712Z,50.10
2023-01-11T03:33:49.455Z,50.10
2023-01-11T03:36:24.641Z,50.20
2023-01-11T03:38:58.637Z,50.10
2023-01-11T03:41:33.818Z,50.20
2023-01-11T03:44:07.597Z,50.30
2023-01-11T03:46:40.131Z,50.30
2023-01-11T03:49:16.122Z,50.30
2023-01-11T03:51:46.807Z,50.40
2023-01-11T03:54:21.683Z,50.30
2023-01-11T03:56:58.280Z,50.40
2023-01-11T03:59:27.551Z,50.40
2023-01-11T04:01:56.837Z,50.40
2023-01-11T04:04:27.218Z,50.40
2023-01-11T04:06:56.195Z,50.50
2023-01-11T04:09:24.751Z,50.40
2023-01-11T04:11:53.379Z,50.50
2023-01-11T04:14:22.139Z,50.50
2023-01-11T04:16:50.767Z,50.60
2023-01-11T04:19:19.403Z,50.70
2023-01-11T04:21:49.337Z,50.70
2023-01-11T04:24:18.609Z,50.80
2023-01-11T04:26:47.256Z,50.80
2023-01-11T04:29:15.923Z,50.90
2023-01-11T04:31:44.731Z,50.90
2023-01-11T04:34:13.595Z,50.90
2023-01-11T04:36:42.580Z,50.90
2023-01-11T04:39:12.625Z,51.00
2023-01-11T04:41:58.858Z,51.10
2023-01-11T04:44:27.532Z,51.20
2023-01-11T04:46:56.175Z,51.30
2023-01-11T04:49:24.801Z,51.30
2023-01-11T04:51:53.569Z,51.40
2023-01-11T04:54:23.588Z,51.40
2023-01-11T04:56:52.297Z,51.50
2023-01-11T04:59:20.928Z,51.50
2023-01-11T05:01:49.527Z,51.60
2023-01-11T05:04:18.266Z,51.60
2023-01-11T05:06:47.449Z,51.70
2023-01-11T05:09:17.846Z,51.80
2023-01-11T05:11:47.871Z,52.00
2023-01-11T05:14:17.330Z,52.10
2023-01-11T05:16:46.243Z,52.00
2023-01-11T05:19:15.128Z,52.10
2023-01-11T05:21:43.770Z,52.20
2023-01-11T05:24:15.364Z,52.20
2023-01-11T05:26:48.555Z,52.50
2023-01-11T05:29:19.237Z,52.60
2023-01-11T05:31:47.963Z,52.40
2023-01-11T05:34:17.708Z,52.40
2023-01-11T05:36:46.605Z,52.60
2023-01-11T05:39:16.149Z,52.60
2023-01-11T05:41:45.049Z,52.70
2023-01-11T05:44:32.366Z,52.60
2023-01-11T05:47:01.156Z,52.80
2023-01-11T05:49:29.813Z,52.60
2023-01-11T05:51:58.525Z,52.70
2023-01-11T05:54:28.277Z,52.70
2023-01-11T05:56:58.752Z,52.80
2023-01-11T05:59:31.874Z,52.90
2023-01-11T06:02:00.820Z,52.90
2023-01-11T06:04:29.587Z,52.80
2023-01-11T06:06:58.313Z,52.90
2023-01-11T06:09:26.986Z,52.90
2023-01-11T06:11:55.626Z,52.90
2023-01-11T06:14:24.244Z,52.90
2023-01-11T06:16:54.913Z,52.90
2023-01-11T06:19:23.630Z,53.00
2023-01-11T06:21:52.339Z,52.90
2023-01-11T06:24:21.040Z,53.00
2023-01-11T06:26:49.741Z,53.10
2023-01-11T06:29:18.641Z,53.10
2023-01-11T06:31:47.268Z,53.10
2023-01-11T06:34:17.279Z,53.20
2023-01-11T06:36:45.903Z,53.40
2023-01-11T06:39:14.718Z,53.30
2023-01-11T06:41:43.421Z,53.40
2023-01-11T06:44:11.998Z,53.40
2023-01-11T06:46:40.816Z,53.40
2023-01-11T06:49:09.445Z,53.40
2023-01-11T06:51:39.514Z,53.40
2023-01-11T06:54:08.313Z,53.60
2023-01-11T06:56:37.022Z,53.40
2023-01-11T06:59:05.718Z,53.40
2023-01-11T07:01:34.401Z,53.50
2023-01-11T07:04:03.306Z,53.50
2023-01-11T07:06:35.651Z,53.60
2023-01-11T07:09:05.963Z,53.60
2023-01-11T07:11:39.018Z,53.60
2023-01-11T07:14:07.653Z,53.50
2023-01-11T07:16:36.301Z,53.60
2023-01-11T07:19:04.927Z,53.60
2023-01-11T07:21:33.766Z,53.60
2023-01-11T07:24:02.592Z,53.60
2023-01-11T07:26:33.137Z,53.60
2023-01-11T07:29:01.832Z,53.80
2023-01-11T07:31:30.568Z,53.70
2023-01-11T07:33:59.352Z,53.70
2023-01-11T07:36:29.976Z,53.80
2023-01-11T07:38:58.573Z,53.80
2023-01-11T07:41:44.692Z,53.80
2023-01-11T07:44:15.103Z,53.80
2023-01-11T07:46:43.857Z,54.00
2023-01-11T07:49:12.995Z,53.90
2023-01-11T07:51:41.810Z,54.00
2023-01-11T07:54:10.681Z,54.00
2023-01-11T07:56:39.537Z,54.10
2023-01-11T07:59:08.430Z,54.20
2023-01-11T08:01:39.033Z,54.30
2023-01-11T08:04:11.920Z,54.50
2023-01-11T08:06:41.132Z,54.30
2023-01-11T08:09:11.426Z,54.30
2023-01-11T08:11:57.507Z,54.50
2023-01-11T08:14:41.281Z,55.00
2023-01-11T08:17:14.807Z,54.30
2023-01-11T08:19:44.092Z,54.50
2023-01-11T08:22:13.298Z,54.40
2023-01-11T08:24:42.234Z,54.40
2023-01-11T08:27:11.072Z,54.40
2023-01-11T08:29:44.065Z,54.40
2023-01-11T08:32:14.477Z,54.50
2023-01-11T08:34:43.267Z,54.50
2023-01-11T08:37:11.886Z,54.40
2023-01-11T08:39:40.614Z,54.40
2023-01-11T08:42:09.344Z,54.40
2023-01-11T08:44:37.941Z,54.50
2023-01-11T08:47:07.479Z,54.50
2023-01-11T08:49:37.850Z,54.50
2023-01-11T08:52:06.640Z,54.60
2023-01-11T08:54:35.308Z,54.50
2023-01-11T08:57:03.990Z,54.60
2023-01-11T08:59:32.654Z,54.60
2023-01-11T09:02:02.821Z,54.60
2023-01-11T09:04:32.043Z,54.60
2023-01-11T09:07:02.512Z,54.70
2023-01-11T09:09:31.888Z,54.70
2023-01-11T09:12:05.497Z,54.70
2023-01-11T09:14:34.801Z,54.70
2023-01-11T09:17:03.601Z,54.70
2023-01-11T09:19:33.548Z,54.70
2023-01-11T09:22:03.605Z,54.80
2023-01-11T09:24:32.357Z,54.90
2023-01-11T09:27:01.581Z,54.80
2023-01-11T09:29:30.343Z,54.80
2023-01-11T09:31:59.165Z,54.80
2023-01-11T09:34:27.933Z,54.90
2023-01-11T09:37:00.057Z,54.90
2023-01-11T09:39:30.053Z,54.90
2023-01-11T09:42:32.358Z,55.00
2023-01-11T09:45:11.199Z,55.30
2023-01-11T09:47:45.030Z,55.10
2023-01-11T09:50:19.883Z,55.00
2023-01-11T09:52:53.259Z,55.20
2023-01-11T09:55:34.061Z,55.20
2023-01-11T09:58:31.253Z,55.40
2023-01-11T10:01:10.944Z,55.40
2023-01-11T10:04:33.374Z,55.20
2023-01-11T10:07:23.081Z,55.70
2023-01-11T10:18:42.768Z,55.50
2023-01-11T10:22:02.176Z,55.50
2023-01-11T10:24:39.096Z,55.40
2023-01-11T10:27:18.195Z,55.50
2023-01-11T10:30:06.186Z,55.70
2023-01-11T10:33:03.294Z,55.60
2023-01-11T10:36:02.867Z,55.80
2023-01-11T10:38:46.557Z,55.70
2023-01-11T10:41:26.379Z,55.70
2023-01-11T10:44:06.313Z,56.50
2023-01-11T10:46:45.963Z,56.00
2023-01-11T10:49:40.211Z,56.10
2023-01-11T10:52:29.038Z,56.30
2023-01-11T10:55:23.441Z,56.20
2023-01-11T10:58:04.395Z,55.70
2023-01-11T11:00:43.368Z,56.10
2023-01-11T11:03:54.570Z,56.00
2023-01-11T11:06:39.778Z,56.40
2023-01-11T11:09:20.985Z,56.20
2023-01-11T11:11:57.392Z,56.30
2023-01-11T11:14:34.697Z,56.10
2023-01-11T11:17:15.186Z,56.30
2023-01-11T11:19:45.287Z,56.30
2023-01-11T11:22:14.252Z,56.20
2023-01-11T11:24:47.798Z,56.10
2023-01-11T11:27:24.539Z,56.40
2023-01-11T11:29:55.743Z,56.50
2023-01-11T11:32:31.833Z,56.40
2023-01-11T11:35:02.098Z,56.70
2023-01-11T11:37:35.841Z,56.40
2023-01-11T11:40:06.672Z,56.70
2023-01-11T11:42:35.322Z,56.50
2023-01-11T11:45:17.116Z,56.50
2023-01-11T11:48:03.456Z,57.00
2023-01-11T11:50:44.854Z,57.10
2023-01-11T11:53:28.329Z,56.70
2023-01-11T11:55:57.254Z,57.00
2023-01-11T11:58:28.059Z,56.50
2023-01-11T12:00:56.782Z,56.70
2023-01-11T12:03:30.235Z,56.70
2023-01-11T12:06:03.624Z,56.70
2023-01-11T12:08:35.213Z,56.90
2023-01-11T12:11:07.603Z,56.80
2023-01-11T12:13:38.704Z,56.80
2023-01-11T12:16:20.395Z,56.80
2023-01-11T12:18:49.360Z,56.80
2023-01-11T12:21:23.259Z,56.70
2023-01-11T12:24:13.739Z,57.10
2023-01-11T12:26:59.529Z,57.40
2023-01-11T12:29:50.195Z,57.20
2023-01-11T12:33:01.242Z,57.20
2023-01-11T12:35:45.202Z,57.10
2023-01-11T12:38:41.228Z,57.00
2023-01-11T12:41:43.334Z,57.30
2023-01-11T12:44:21.460Z,57.10
2023-01-11T12:47:29.766Z,57.00
2023-01-11T12:50:05.446Z,57.30
2023-01-11T12:52:52.594Z,57.00
2023-01-11T12:55:44.808Z,57.30
2023-01-11T12:58:19.105Z,57.30
2023-01-11T13:01:20.150Z,57.00
2023-01-11T13:04:29.317Z,57.40
2023-01-11T13:07:11.102Z,57.30
2023-01-11T13:09:55.478Z,57.00
2023-01-11T13:12:37.174Z,57.30
2023-01-11T13:15:25.713Z,57.10
2023-01-11T13:18:01.466Z,57.10
2023-01-11T13:20:59.515Z,56.90
2023-01-11T13:23:40.182Z,57.00
2023-01-11T13:26:20.999Z,57.00
2023-01-11T13:28:57.347Z,57.10
2023-01-11T13:31:27.281Z,57.00
2023-01-11T13:34:02.389Z,56.80
2023-01-11T13:36:40.046Z,57.00
2023-01-11T13:39:17.602Z,57.70
2023-01-11T13:41:51.027Z,57.20
2023-01-11T13:44:26.237Z,57.00
2023-01-11T13:47:05.748Z,57.20
2023-01-11T13:49:49.632Z,57.20
2023-01-11T13:52:21.555Z,57.30
2023-01-11T13:55:00.169Z,57.10
2023-01-11T13:57:36.658Z,57.30
2023-01-11T14:00:19.612Z,57.20
2023-01-11T14:02:54.011Z,57.20
2023-01-11T14:05:24.678Z,57.10
2023-01-11T14:08:08.655Z,57.10
2023-01-11T14:10:48.508Z,57.40
2023-01-11T14:14:15.502Z,57.20
2023-01-11T14:17:03.597Z,57.40
2023-01-11T14:19:39.400Z,57.30
2023-01-11T14:22:18.931Z,57.10
2023-01-11T14:24:56.380Z,57.20
2023-01-11T14:27:56.314Z,57.20
2023-01-11T14:31:02.955Z,57.40
2023-01-11T14:34:23.516Z,57.30
2023-01-11T14:37:34.747Z,57.20
2023-01-11T14:40:35.483Z,57.20
2023-01-11T14:43:39.538Z,57.20
2023-01-11T14:46:34.994Z,57.20
2023-01-11T14:49:19.137Z,57.10
2023-01-11T14:51:58.127Z,57.10
2023-01-11T14:54:30.303Z,57.20
2023-01-11T14:57:00.406Z,57.00
2023-01-11T14:59:41.077Z,57.00
2023-01-11T15:02:27.682Z,57.30
2023-01-11T15:05:36.036Z,57.30
2023-01-11T15:08:26.894Z,57.30
2023-01-11T15:10:59.889Z,57.30
2023-01-11T15:13:33.604Z,57.00
2023-01-11T15:16:35.953Z,57.00
2023-01-11T15:19:09.755Z,57.20
2023-01-11T15:21:47.755Z,57.00
2023-01-11T15:24:26.127Z,57.10
2023-01-11T15:26:56.396Z,57.20
2023-01-11T15:29:29.928Z,57.00
2023-01-11T15:32:16.177Z,57.00
2023-01-11T15:34:47.652Z,57.10
2023-01-11T15:37:45.860Z,56.90
2023-01-11T15:40:23.441Z,57.20
2023-01-11T15:43:37.735Z,57.00
2023-01-11T15:47:05.546Z,57.10
2023-01-11T15:50:14.521Z,57.00
2023-01-11T15:53:34.725Z,56.80
2023-01-11T15:57:04.112Z,56.80
2023-01-11T16:00:39.485Z,56.70
2023-01-11T16:03:50.501Z,56.70
2023-01-11T16:06:29.122Z,56.50
2023-01-11T16:09:25.527Z,56.40
2023-01-11T16:12:08.374Z,56.50
2023-01-11T16:15:08.565Z,56.40
2023-01-11T16:17:41.780Z,56.40
2023-01-11T16:20:28.969Z,56.20
2023-01-11T16:23:00.581Z,56.20
2023-01-11T16:25:32.534Z,56.20
2023-01-11T16:28:02.527Z,56.10
2023-01-11T16:30:31.502Z,56.10
2023-01-11T16:33:17.352Z,56.00
2023-01-11T16:35:46.023Z,56.00
2023-01-11T16:38:19.274Z,55.90
2023-01-11T16:40:51.795Z,55.90
2023-01-11T16:43:24.688Z,55.90
2023-01-11T16:45:55.367Z,55.80
2023-01-11T16:48:25.830Z,55.80
2023-01-11T16:51:02.998Z,55.80
2023-01-11T16:53:33.907Z,55.70
2023-01-11T16:56:07.787Z,55.70
2023-01-11T16:58:37.924Z,55.70
2023-01-11T17:01:09.978Z,55.60
2023-01-11T17:03:43.993Z,55.60
2023-01-11T17:06:19.532Z,55.50
2023-01-11T17:08:52.264Z,55.40
2023-01-11T17:11:28.901Z,55.40
2023-01-11T17:14:36.464Z,55.30
2023-01-11T17:17:07.736Z,55.20
2023-01-11T17:19:38.815Z,55.20
2023-01-11T17:22:14.715Z,55.20
2023-01-11T17:24:50.026Z,55.10
2023-01-11T17:27:23.146Z,55.10
2023-01-11T17:29:55.218Z,55.00
2023-01-11T17:32:32.579Z,55.00
2023-01-11T17:35:05.582Z,55.00
2023-01-11T17:37:35.073Z,55.00
2023-01-11T17:40:05.744Z,55.00
2023-01-11T17:42:53.201Z,54.90
2023-01-11T17:45:24.767Z,54.90
2023-01-11T17:47:55.698Z,54.80
2023-01-11T17:50:31.037Z,54.80
2023-01-11T17:53:06.351Z,54.70
2023-01-11T17:55:35.922Z,54.60
2023-01-11T17:58:21.474Z,54.70
2023-01-11T18:01:18.223Z,54.50
2023-01-11T18:03:49.161Z,54.50
2023-01-11T18:06:33.799Z,54.60
2023-01-11T18:09:05.374Z,54.50
2023-01-11T18:11:36.528Z,54.60
2023-01-11T18:14:09.496Z,54.50
2023-01-11T18:16:38.404Z,54.50
2023-01-11T18:19:32.426Z,54.50
2023-01-11T18:22:01.624Z,54.40
2023-01-11T18:24:39.038Z,54.50
2023-01-11T18:27:32.399Z,54.40
2023-01-11T18:30:06.550Z,54.30
2023-01-11T18:32:44.703Z,54.30
2023-01-11T18:35:19.171Z,54.20
2023-01-11T18:37:48.383Z,54.10
2023-01-11T18:40:19.067Z,54.30
2023-01-11T18:42:51.202Z,54.30
2023-01-11T18:45:22.044Z,54.20
2023-01-11T18:47:50.758Z,54.10
2023-01-11T18:50:19.896Z,54.20
2023-01-11T18:52:48.688Z,54.20
2023-01-11T18:55:17.922Z,54.20
2023-01-11T18:57:47.458Z,54.10
2023-01-11T19:00:18.722Z,54.10
2023-01-11T19:02:48.882Z,54.10
2023-01-11T19:05:19.814Z,54.00
2023-01-11T19:07:49.052Z,54.00
2023-01-11T19:10:20.345Z,54.00
2023-01-11T19:12:49.513Z,54.00
2023-01-11T19:15:18.713Z,54.00
2023-01-11T19:17:49.110Z,54.00
2023-01-11T19:20:18.030Z,53.90
2023-01-11T19:22:46.692Z,53.90
2023-01-11T19:25:15.367Z,54.00
2023-01-11T19:27:44.236Z,53.90
2023-01-11T19:30:14.699Z,53.90
2023-01-11T19:32:43.353Z,53.90
2023-01-11T19:35:13.401Z,53.90
2023-01-11T19:37:41.983Z,53.70
2023-01-11T19:40:12.253Z,53.80
2023-01-11T19:42:40.883Z,53.70
2023-01-11T19:45:10.852Z,53.70
2023-01-11T19:47:40.071Z,53.60
2023-01-11T19:50:09.725Z,53.70
2023-01-11T19:52:39.758Z,53.70
2023-01-11T19:55:09.909Z,53.60
2023-01-11T19:57:38.548Z,53.60
2023-01-11T20:00:09.112Z,53.60
2023-01-11T20:02:41.115Z,53.60
2023-01-11T20:05:10.490Z,53.60
2023-01-11T20:07:40.592Z,53.60
2023-01-11T20:10:10.644Z,54.10
2023-01-11T20:12:39.250Z,53.50
2023-01-11T20:15:09.533Z,53.50
2023-01-11T20:17:38.391Z,53.50
2023-01-11T20:20:08.242Z,53.40
2023-01-11T20:22:37.227Z,54.10
2023-01-11T20:25:08.501Z,53.40
2023-01-11T20:27:37.134Z,53.40
2023-01-11T20:30:08.392Z,53.40
2023-01-11T20:32:41.936Z,53.40
2023-01-11T20:35:11.782Z,53.40
2023-01-11T20:37:40.527Z,53.40
2023-01-11T20:40:14.283Z,53.40
2023-01-11T20:42:43.393Z,53.20
2023-01-11T20:45:12.961Z,53.30
2023-01-11T20:47:41.761Z,53.30
2023-01-11T20:50:11.541Z,53.30
2023-01-11T20:52:40.219Z,53.30
2023-01-11T20:55:11.178Z,53.30
2023-01-11T20:57:39.817Z,53.30
2023-01-11T21:02:39.048Z,53.30
2023-01-11T21:05:09.395Z,53.30
2023-01-11T21:07:38.022Z,53.30
2023-01-11T21:10:09.093Z,53.20
2023-01-11T21:15:10.525Z,53.10
2023-01-11T21:17:39.291Z,53.10
2023-01-11T21:20:09.583Z,53.10
2023-01-11T21:22:38.196Z,53.10
2023-01-11T21:25:08.669Z,53.10
2023-01-11T21:27:39.065Z,53.10
2023-01-11T21:30:09.465Z,53.10
2023-01-11T21:32:38.145Z,53.10
2023-01-11T21:35:07.747Z,53.10
2023-01-11T21:37:36.471Z,53.10
2023-01-11T21:40:06.269Z,53.10
2023-01-11T21:42:34.860Z,53.10
2023-01-11T21:45:05.896Z,53.00
2023-01-11T21:47:34.542Z,52.90
2023-01-11T21:50:03.399Z,53.00
2023-01-11T21:52:32.146Z,53.00
2023-01-11T21:55:00.733Z,53.00
2023-01-11T21:57:29.646Z,52.90
2023-01-11T21:59:58.306Z,52.90
2023-01-11T22:02:28.369Z,52.90
2023-01-11T22:04:57.850Z,52.90
2023-01-11T22:07:27.555Z,52.80
2023-01-11T22:10:04.444Z,52.80
2023-01-11T22:12:35.349Z,52.80
2023-01-11T22:15:04.361Z,52.70
2023-01-11T22:17:34.473Z,52.70
2023-01-11T22:20:03.163Z,52.70
2023-01-11T22:22:31.955Z,52.70
2023-01-11T22:25:00.846Z,52.70
2023-01-11T22:27:29.563Z,52.70
2023-01-11T22:29:58.129Z,52.70
2023-01-11T22:32:26.756Z,52.60
2023-01-11T22:34:56.830Z,52.60
2023-01-11T22:37:25.567Z,52.60
2023-01-11T22:39:54.230Z,52.60
2023-01-11T22:42:22.907Z,52.60
2023-01-11T22:44:53.448Z,52.60
2023-01-11T22:47:22.193Z,52.60
2023-01-11T22:49:54.129Z,52.60
2023-01-11T22:52:24.215Z,52.60
2023-01-11T22:54:52.795Z,52.60
2023-01-11T22:57:21.503Z,52.60
2023-01-11T22:59:50.195Z,52.50
2023-01-11T23:02:18.844Z,52.60
2023-01-11T23:04:47.473Z,52.50
2023-01-11T23:07:16.115Z,52.50
2023-01-11T23:09:46.126Z,52.50
2023-01-11T23:12:32.292Z,52.50
2023-01-11T23:15:01.076Z,52.40
2023-01-11T23:17:29.745Z,52.40
2023-01-11T23:19:58.351Z,52.40
2023-01-11T23:22:27.047Z,52.40
2023-01-11T23:24:57.046Z,52.40
2023-01-11T23:27:25.697Z,52.30
2023-01-11T23:29:54.324Z,52.40
2023-01-11T23:32:22.989Z,52.40
2023-01-11T23:34:51.638Z,52.40
2023-01-11T23:37:20.240Z,52.30
2023-01-11T23:39:48.881Z,52.40
2023-01-11T23:42:26.831Z,52.30
2023-01-11T23:44:55.662Z,52.30
2023-01-11T23:47:25.384Z,52.40
2023-01-11T23:49:55.928Z,52.30
2023-01-11T23:52:27.537Z,52.30
2023-01-11T23:54:56.598Z,52.20
2023-01-11T23:57:27.502Z,52.20
2023-01-11T23:59:56.625Z,52.20
